createdAt,value
2017-06-23T00:02:11.565Z,2.65
2017-06-23T00:04:39.336Z,3.28
2017-06-23T00:07:07.068Z,3.42
2017-06-23T00:09:34.803Z,4.15
2017-06-23T00:12:02.568Z,4.20
2017-06-23T00:14:30.312Z,4.37
2017-06-23T00:16:58.089Z,3.10
2017-06-23T00:19:25.832Z,4.22
2017-06-23T00:21:53.575Z,3.22
2017-06-23T00:24:21.359Z,3.50
2017-06-23T00:26:49.098Z,4.35
2017-06-23T00:29:16.863Z,4.97
2017-06-23T00:31:44.608Z,5.47
2017-06-23T00:34:12.354Z,4.05
2017-06-23T00:36:40.132Z,4.35
2017-06-23T00:39:07.867Z,5.22
2017-06-23T00:41:35.649Z,5.45
2017-06-23T00:44:03.381Z,4.93
2017-06-23T00:46:31.880Z,5.35
2017-06-23T00:48:59.652Z,4.90
2017-06-23T00:51:27.397Z,5.00
2017-06-23T00:53:55.181Z,4.10
2017-06-23T00:56:22.942Z,4.65
2017-06-23T00:58:50.676Z,5.12
2017-06-23T01:01:18.452Z,4.50
2017-06-23T01:03:46.201Z,4.82
2017-06-23T01:06:13.976Z,4.30
2017-06-23T01:08:41.708Z,5.00
2017-06-23T01:11:10.220Z,4.80
2017-06-23T01:13:37.994Z,5.07
2017-06-23T01:16:05.736Z,5.20
2017-06-23T01:18:33.514Z,5.85
2017-06-23T01:21:01.269Z,6.03
2017-06-23T01:23:29.025Z,5.78
2017-06-23T01:25:56.794Z,4.87
2017-06-23T01:28:24.534Z,6.55
2017-06-23T01:30:52.339Z,5.45
2017-06-23T01:33:20.089Z,6.00
2017-06-23T01:35:47.833Z,4.90
2017-06-23T01:38:15.595Z,5.37
2017-06-23T01:40:43.349Z,5.87
2017-06-23T01:43:11.133Z,5.62
2017-06-23T01:45:38.914Z,6.00
2017-06-23T01:48:06.678Z,5.90
2017-06-23T01:50:34.449Z,6.43
2017-06-23T01:53:02.196Z,5.87
2017-06-23T01:55:29.984Z,6.97
2017-06-23T01:57:58.491Z,5.37
2017-06-23T02:00:26.241Z,6.95
2017-06-23T02:02:54.040Z,5.78
2017-06-23T02:05:21.786Z,6.15
2017-06-23T02:07:49.570Z,6.95
2017-06-23T02:10:17.317Z,7.07
2017-06-23T02:12:45.056Z,6.47
2017-06-23T02:15:12.848Z,6.65
2017-06-23T02:17:40.585Z,5.20
2017-06-23T02:20:08.361Z,6.53
2017-06-23T02:22:36.101Z,6.32
2017-06-23T02:25:03.847Z,6.55
2017-06-23T02:27:32.376Z,6.60
2017-06-23T02:30:00.114Z,6.80
2017-06-23T02:32:27.896Z,7.18
2017-06-23T02:34:55.628Z,8.90
2017-06-23T02:37:23.371Z,7.37
2017-06-23T02:39:51.165Z,6.78
2017-06-23T02:42:18.917Z,7.25
2017-06-23T02:44:46.714Z,6.97
2017-06-23T02:47:14.459Z,8.35
2017-06-23T02:49:42.204Z,7.80
2017-06-23T02:52:09.981Z,8.00
2017-06-23T02:54:37.717Z,7.35
2017-06-23T02:57:05.501Z,6.68
2017-06-23T02:59:33.234Z,7.72
2017-06-23T03:02:00.967Z,7.00
2017-06-23T03:04:28.731Z,6.47
2017-06-23T03:06:56.467Z,6.22
2017-06-23T03:09:24.242Z,6.03
2017-06-23T03:11:51.989Z,7.40
2017-06-23T03:14:19.728Z,7.35
2017-06-23T03:16:47.509Z,5.70
2017-06-23T03:19:15.250Z,7.85
2017-06-23T03:21:43.026Z,6.32
2017-06-23T03:24:10.766Z,6.97
2017-06-23T03:26:38.499Z,5.55
2017-06-23T03:29:06.265Z,7.00
2017-06-23T03:31:34.001Z,7.35
2017-06-23T03:34:02.553Z,6.30
2017-06-23T03:36:30.286Z,6.30
2017-06-23T03:38:58.014Z,7.18
2017-06-23T03:41:25.799Z,7.25
2017-06-23T03:43:53.535Z,6.78
2017-06-23T03:46:22.071Z,6.15
2017-06-23T03:48:49.808Z,7.05
2017-06-23T03:51:17.540Z,7.62
2017-06-23T03:53:46.072Z,6.68
2017-06-23T03:56:13.804Z,6.22
2017-06-23T03:58:41.577Z,7.37
2017-06-23T04:01:09.312Z,7.62
2017-06-23T04:03:37.045Z,6.62
2017-06-23T04:06:05.584Z,6.55
2017-06-23T04:08:33.315Z,5.90
2017-06-23T04:11:01.092Z,6.87
2017-06-23T04:13:28.833Z,7.07
2017-06-23T04:15:56.564Z,6.50
2017-06-23T04:18:24.328Z,6.30
2017-06-23T04:20:52.060Z,7.18
2017-06-23T04:23:19.841Z,5.50
2017-06-23T04:25:47.576Z,5.10
2017-06-23T04:28:15.309Z,3.80
2017-06-23T04:30:43.071Z,5.45
2017-06-23T04:33:10.813Z,4.18
2017-06-23T04:35:39.357Z,3.75
2017-06-23T04:38:07.097Z,3.72
2017-06-23T04:40:34.823Z,4.68
2017-06-23T04:43:02.581Z,4.30
2017-06-23T04:45:30.316Z,3.20
2017-06-23T04:47:58.091Z,4.60
2017-06-23T04:50:25.828Z,4.47
2017-06-23T04:52:53.559Z,3.65
2017-06-23T04:55:21.311Z,3.60
2017-06-23T04:57:49.040Z,4.18
2017-06-23T05:00:17.583Z,3.80
2017-06-23T05:02:45.315Z,4.82
2017-06-23T05:05:13.048Z,3.20
2017-06-23T05:07:40.807Z,4.10
2017-06-23T05:10:09.303Z,4.78
2017-06-23T05:12:37.076Z,4.03
2017-06-23T05:15:04.811Z,4.00
2017-06-23T05:17:32.548Z,3.92
2017-06-23T05:20:00.328Z,3.85
2017-06-23T05:22:28.852Z,3.87
2017-06-23T05:24:56.626Z,3.80
2017-06-23T05:27:24.356Z,3.80
2017-06-23T05:29:52.082Z,4.10
2017-06-23T05:32:20.612Z,3.72
2017-06-23T05:34:48.344Z,4.55
2017-06-23T05:37:16.112Z,3.58
2017-06-23T05:39:43.841Z,3.70
2017-06-23T05:42:12.335Z,4.25
2017-06-23T05:44:40.104Z,3.97
2017-06-23T05:47:07.835Z,4.50
2017-06-23T05:49:36.387Z,4.40
2017-06-23T05:52:04.121Z,4.43
2017-06-23T05:54:31.852Z,4.15
2017-06-23T05:57:00.381Z,4.95
2017-06-23T05:59:28.127Z,5.90
2017-06-23T06:01:56.852Z,5.15
2017-06-23T06:04:24.587Z,5.72
2017-06-23T06:06:52.317Z,6.00
2017-06-23T06:09:20.080Z,6.10
2017-06-23T06:11:47.818Z,5.90
2017-06-23T06:14:16.372Z,5.82
2017-06-23T06:16:44.119Z,5.75
2017-06-23T06:19:11.853Z,5.95
2017-06-23T06:21:39.633Z,7.53
2017-06-23T06:24:07.369Z,6.30
2017-06-23T06:26:35.144Z,6.53
2017-06-23T06:29:02.893Z,6.75
2017-06-23T06:31:30.650Z,6.18
2017-06-23T06:33:58.424Z,8.50
2017-06-23T06:36:26.174Z,6.43
2017-06-23T06:38:53.943Z,6.97
2017-06-23T06:41:21.689Z,7.07
2017-06-23T06:43:49.441Z,7.15
2017-06-23T06:46:17.223Z,7.43
2017-06-23T06:48:44.952Z,7.25
2017-06-23T06:51:13.529Z,6.45
2017-06-23T06:53:42.020Z,6.53
2017-06-23T06:56:09.749Z,7.60
2017-06-23T06:58:37.512Z,6.50
2017-06-23T07:01:05.243Z,6.78
2017-06-23T07:03:33.009Z,6.78
2017-06-23T07:06:00.737Z,6.15
2017-06-23T07:08:28.472Z,6.22
2017-06-23T07:10:57.013Z,7.28
2017-06-23T07:13:24.745Z,7.32
2017-06-23T07:15:52.517Z,8.45
2017-06-23T07:18:20.251Z,7.18
2017-06-23T07:20:47.980Z,8.68
2017-06-23T07:23:15.743Z,7.80
2017-06-23T07:25:43.493Z,10.35
2017-06-23T07:28:11.268Z,8.52
2017-06-23T07:30:39.004Z,8.45
2017-06-23T07:33:06.734Z,9.40
2017-06-23T07:35:34.495Z,9.40
2017-06-23T07:38:02.240Z,10.20
2017-06-23T07:40:30.026Z,10.45
2017-06-23T07:42:57.770Z,10.82
2017-06-23T07:45:25.516Z,9.00
2017-06-23T07:47:54.050Z,10.90
2017-06-23T07:50:21.787Z,12.13
2017-06-23T07:52:49.565Z,11.15
2017-06-23T07:55:17.311Z,11.23
2017-06-23T07:57:45.048Z,11.18
2017-06-23T08:00:12.812Z,11.35
2017-06-23T08:02:40.573Z,10.88
2017-06-23T08:05:08.377Z,10.48
2017-06-23T08:07:36.119Z,12.35
2017-06-23T08:10:03.884Z,13.10
2017-06-23T08:12:31.687Z,11.32
2017-06-23T08:14:59.448Z,12.37
2017-06-23T08:17:27.251Z,12.73
2017-06-23T08:19:55.011Z,10.70
2017-06-23T08:22:22.773Z,10.00
2017-06-23T08:24:50.580Z,10.10
2017-06-23T08:27:18.385Z,9.05
2017-06-23T08:29:46.193Z,8.90
2017-06-23T08:32:13.954Z,10.00
2017-06-23T08:34:41.727Z,12.05
2017-06-23T08:37:09.537Z,11.35
2017-06-23T08:39:37.319Z,12.15
2017-06-23T08:42:05.132Z,12.73
2017-06-23T08:44:33.677Z,10.15
2017-06-23T08:47:01.443Z,8.75
2017-06-23T08:49:29.232Z,9.93
2017-06-23T08:51:57.025Z,10.40
2017-06-23T08:54:24.832Z,10.23
2017-06-23T08:56:52.592Z,11.48
2017-06-23T08:59:20.361Z,10.75
2017-06-23T09:01:48.159Z,11.95
2017-06-23T09:04:16.691Z,12.07
2017-06-23T09:06:44.492Z,12.88
2017-06-23T09:09:12.262Z,11.60
2017-06-23T09:11:40.795Z,15.05
2017-06-23T09:14:08.589Z,13.23
2017-06-23T09:16:36.354Z,12.68
2017-06-23T09:19:04.934Z,12.90
2017-06-23T09:21:33.467Z,12.48
2017-06-23T09:24:01.241Z,12.68
2017-06-23T09:26:29.093Z,14.93
2017-06-23T09:28:56.852Z,14.15
2017-06-23T09:31:24.665Z,12.98
2017-06-23T09:33:53.204Z,15.15
2017-06-23T09:36:20.974Z,13.98
2017-06-23T09:38:48.778Z,15.90
2017-06-23T09:41:16.539Z,14.30
2017-06-23T09:43:44.345Z,14.95
2017-06-23T09:46:12.120Z,15.75
2017-06-23T09:48:39.913Z,16.40
2017-06-23T09:51:08.493Z,16.52
2017-06-23T09:53:37.037Z,16.33
2017-06-23T09:56:04.864Z,15.63
2017-06-23T09:58:32.638Z,15.75
2017-06-23T10:01:00.417Z,16.35
2017-06-23T10:03:28.220Z,15.85
2017-06-23T10:05:56.756Z,16.48
2017-06-23T10:08:24.572Z,15.43
2017-06-23T10:10:53.108Z,17.33
2017-06-23T10:13:20.885Z,18.15
2017-06-23T10:15:48.766Z,19.67
2017-06-23T10:18:16.593Z,23.05
2017-06-23T10:20:44.427Z,18.45
2017-06-23T10:23:12.204Z,22.00
2017-06-23T10:25:39.987Z,23.70
2017-06-23T10:28:07.806Z,22.45
2017-06-23T10:30:35.576Z,23.90
2017-06-23T10:33:03.469Z,25.52
2017-06-23T10:35:31.255Z,26.62
2017-06-23T10:37:59.140Z,24.33
2017-06-23T10:40:26.964Z,24.83
2017-06-23T10:42:54.737Z,26.12
2017-06-23T10:45:22.564Z,23.83
2017-06-23T10:47:50.344Z,26.10
2017-06-23T10:50:18.123Z,23.70
2017-06-23T10:52:45.940Z,24.55
2017-06-23T10:55:13.744Z,21.20
2017-06-23T10:57:41.528Z,21.58
2017-06-23T11:00:10.110Z,21.40
2017-06-23T11:02:38.644Z,22.65
2017-06-23T11:05:06.427Z,21.92
2017-06-23T11:07:34.296Z,20.10
2017-06-23T11:10:02.072Z,21.95
2017-06-23T11:12:30.655Z,19.55
2017-06-23T11:14:59.361Z,21.33
2017-06-23T11:17:27.138Z,18.65
2017-06-23T11:19:54.921Z,18.90
2017-06-23T11:22:22.732Z,15.80
2017-06-23T11:24:50.516Z,17.05
2017-06-23T11:27:18.316Z,16.83
2017-06-23T11:29:46.181Z,16.15
2017-06-23T11:32:13.950Z,16.55
2017-06-23T11:34:41.753Z,14.93
2017-06-23T11:37:10.288Z,16.75
2017-06-23T11:39:38.096Z,17.15
2017-06-23T11:42:06.627Z,15.85
2017-06-23T11:44:34.388Z,16.52
2017-06-23T11:47:02.183Z,15.82
2017-06-23T11:49:30.712Z,15.77
2017-06-23T11:51:58.524Z,17.48
2017-06-23T11:54:26.329Z,16.50
2017-06-23T11:56:54.134Z,15.63
2017-06-23T11:59:21.933Z,16.75
2017-06-23T12:01:49.707Z,15.85
2017-06-23T12:04:17.520Z,16.58
2017-06-23T12:06:45.279Z,16.58
2017-06-23T12:09:13.049Z,16.55
2017-06-23T12:11:40.887Z,17.75
2017-06-23T12:14:08.653Z,18.65
2017-06-23T12:16:36.464Z,18.05
2017-06-23T12:19:04.245Z,16.65
2017-06-23T12:21:32.021Z,16.85
2017-06-23T12:23:59.821Z,15.95
2017-06-23T12:26:27.578Z,17.42
2017-06-23T12:28:55.387Z,15.93
2017-06-23T12:31:23.166Z,15.82
2017-06-23T12:33:50.936Z,16.60
2017-06-23T12:36:18.744Z,16.35
2017-06-23T12:38:47.328Z,17.85
2017-06-23T12:41:15.914Z,17.48
2017-06-23T12:43:44.466Z,17.80
2017-06-23T12:46:12.231Z,17.48
2017-06-23T12:48:40.028Z,17.87
2017-06-23T12:51:07.793Z,16.62
2017-06-23T12:53:35.601Z,15.48
2017-06-23T12:56:03.372Z,16.15
2017-06-23T12:58:31.142Z,15.43
2017-06-23T13:00:58.957Z,15.05
2017-06-23T13:03:26.728Z,16.42
2017-06-23T13:05:54.540Z,14.63
2017-06-23T13:08:23.076Z,14.75
2017-06-23T13:10:50.841Z,13.88
2017-06-23T13:13:18.647Z,15.13
2017-06-23T13:15:46.409Z,14.68
2017-06-23T13:18:14.977Z,13.95
2017-06-23T13:20:42.748Z,13.95
2017-06-23T13:23:11.279Z,13.40
2017-06-23T13:25:39.083Z,12.60
2017-06-23T13:28:06.879Z,12.68
2017-06-23T13:30:34.685Z,11.70
2017-06-23T13:33:02.447Z,10.95
2017-06-23T13:35:30.209Z,9.63
2017-06-23T13:37:58.018Z,10.40
2017-06-23T13:40:25.799Z,10.40
2017-06-23T13:42:53.605Z,10.52
2017-06-23T13:45:21.369Z,10.40
2017-06-23T13:47:49.196Z,10.00
2017-06-23T13:50:17.009Z,10.27
2017-06-23T13:52:45.548Z,11.65
2017-06-23T13:55:13.348Z,11.77
2017-06-23T13:57:41.893Z,11.70
2017-06-23T14:00:09.661Z,12.00
2017-06-23T14:02:37.460Z,10.57
2017-06-23T14:05:05.994Z,12.73
2017-06-23T14:07:34.430Z,10.82
2017-06-23T14:10:02.218Z,11.65
2017-06-23T14:12:30.052Z,11.02
2017-06-23T14:14:57.858Z,10.32
2017-06-23T14:17:25.629Z,10.25
2017-06-23T14:19:53.439Z,10.60
2017-06-23T14:22:21.207Z,9.52
2017-06-23T14:24:48.978Z,9.93
2017-06-23T14:27:16.783Z,10.32
2017-06-23T14:29:44.598Z,10.00
2017-06-23T14:32:12.424Z,10.95
2017-06-23T14:34:40.203Z,9.25
2017-06-23T14:37:08.729Z,9.25
2017-06-23T14:39:36.553Z,9.80
2017-06-23T14:42:04.325Z,11.05
2017-06-23T14:44:32.153Z,9.13
2017-06-23T14:46:59.984Z,11.02
2017-06-23T14:49:27.801Z,9.85
2017-06-23T14:51:55.596Z,9.85
2017-06-23T14:54:23.369Z,9.77
2017-06-23T14:56:51.203Z,8.23
2017-06-23T14:59:28.010Z,10.80
2017-06-23T15:01:55.804Z,9.80
2017-06-23T15:04:24.351Z,9.15
2017-06-23T15:06:52.129Z,9.95
2017-06-23T15:09:19.941Z,8.73
2017-06-23T15:11:47.735Z,9.35
2017-06-23T15:14:15.563Z,10.05
2017-06-23T15:16:43.421Z,11.88
2017-06-23T15:19:11.235Z,11.00
2017-06-23T15:21:39.044Z,12.23
2017-06-23T15:24:06.818Z,12.82
2017-06-23T15:26:34.699Z,10.50
2017-06-23T15:29:02.501Z,11.07
2017-06-23T15:31:30.280Z,9.95
2017-06-23T15:33:58.099Z,10.52
2017-06-23T15:36:25.900Z,9.73
2017-06-23T15:38:53.727Z,10.77
2017-06-23T15:41:21.488Z,8.85
2017-06-23T15:43:49.271Z,8.95
2017-06-23T15:46:17.117Z,8.82
2017-06-23T15:48:44.930Z,8.63
2017-06-23T15:51:12.764Z,9.48
2017-06-23T15:53:40.536Z,8.48
2017-06-23T15:56:08.329Z,8.75
2017-06-23T15:58:36.175Z,7.95
2017-06-23T16:01:04.730Z,8.45
2017-06-23T16:03:32.583Z,8.20
2017-06-23T16:06:00.359Z,9.25
2017-06-23T16:08:28.914Z,8.50
2017-06-23T16:10:56.766Z,9.30
2017-06-23T16:13:24.565Z,8.23
2017-06-23T16:15:52.403Z,8.05
2017-06-23T16:18:20.180Z,9.40
2017-06-23T16:20:47.943Z,8.07
2017-06-23T16:23:15.752Z,8.82
2017-06-23T16:25:43.577Z,8.75
2017-06-23T16:28:12.203Z,8.98
2017-06-23T16:30:39.973Z,8.43
2017-06-23T16:33:07.744Z,8.90
2017-06-23T16:35:35.647Z,9.15
2017-06-23T16:38:04.187Z,9.60
2017-06-23T16:40:32.001Z,9.55
2017-06-23T16:43:00.550Z,9.60
2017-06-23T16:45:28.332Z,8.98
2017-06-23T16:47:56.977Z,8.50
2017-06-23T16:50:24.790Z,9.57
2017-06-23T16:53:06.599Z,10.07
2017-06-23T16:55:35.317Z,8.77
2017-06-23T16:58:03.105Z,10.23
2017-06-23T17:00:30.915Z,9.25
2017-06-23T17:02:58.855Z,8.80
2017-06-23T17:05:27.531Z,8.35
2017-06-23T17:07:56.150Z,8.50
2017-06-23T17:10:24.097Z,8.80
2017-06-23T17:12:51.949Z,9.25
2017-06-23T17:15:20.830Z,8.18
2017-06-23T17:17:52.368Z,8.55
2017-06-23T17:20:20.273Z,7.87
2017-06-23T17:22:48.045Z,7.82
2017-06-23T17:25:15.871Z,8.18
2017-06-23T17:27:44.415Z,8.57
2017-06-23T17:30:12.261Z,7.85
2017-06-23T17:32:40.080Z,8.52
2017-06-23T17:35:08.650Z,7.55
2017-06-23T17:37:37.272Z,8.40
2017-06-23T17:40:05.086Z,8.35
2017-06-23T17:42:33.703Z,8.95
2017-06-23T17:45:01.490Z,9.23
2017-06-23T17:47:29.332Z,8.25
2017-06-23T17:49:57.232Z,8.40
2017-06-23T17:52:25.035Z,7.57
2017-06-23T17:54:53.664Z,9.10
2017-06-23T17:57:21.458Z,7.80
2017-06-23T17:59:49.245Z,8.38
2017-06-23T18:02:17.838Z,9.50
2017-06-23T18:04:45.666Z,7.97
2017-06-23T18:07:13.527Z,7.40
2017-06-23T18:09:41.324Z,8.52
2017-06-23T18:12:09.142Z,8.50
2017-06-23T18:14:36.995Z,9.73
2017-06-23T18:17:04.815Z,8.45
2017-06-23T18:19:32.658Z,8.05
2017-06-23T18:22:01.234Z,7.93
2017-06-23T18:24:29.787Z,8.80
2017-06-23T18:26:57.660Z,10.95
2017-06-23T18:29:25.473Z,10.50
2017-06-23T18:31:53.314Z,10.57
2017-06-23T18:34:21.878Z,10.43
2017-06-23T18:36:49.666Z,9.70
2017-06-23T18:39:17.520Z,10.80
2017-06-23T18:41:46.093Z,10.25
2017-06-23T18:44:14.722Z,8.77
2017-06-23T18:46:42.537Z,8.73
2017-06-23T18:49:11.095Z,8.98
2017-06-23T18:51:38.942Z,8.70
2017-06-23T18:54:06.746Z,11.80
2017-06-23T18:56:35.395Z,10.60
2017-06-23T18:59:03.215Z,11.55
2017-06-23T19:01:31.077Z,12.23
2017-06-23T19:03:58.943Z,11.07
2017-06-23T19:06:26.927Z,11.60
2017-06-23T19:08:54.963Z,11.65
2017-06-23T19:11:22.789Z,12.37
2017-06-23T19:13:50.587Z,10.68
2017-06-23T19:16:18.405Z,11.35
2017-06-23T19:18:46.220Z,12.10
2017-06-23T19:21:14.090Z,10.15
2017-06-23T19:23:41.913Z,11.15
2017-06-23T19:26:09.722Z,11.20
2017-06-23T19:28:37.592Z,13.15
2017-06-23T19:31:05.606Z,11.93
2017-06-23T19:33:33.447Z,11.57
2017-06-23T19:36:01.246Z,11.98
2017-06-23T19:38:29.802Z,11.95
2017-06-23T19:40:57.690Z,13.18
2017-06-23T19:43:26.265Z,12.68
2017-06-23T19:45:54.890Z,13.10
2017-06-23T19:48:22.722Z,11.57
2017-06-23T19:50:51.315Z,12.07
2017-06-23T19:53:19.175Z,12.35
2017-06-23T19:55:46.992Z,13.30
2017-06-23T19:58:14.840Z,13.23
2017-06-23T20:00:42.679Z,13.02
2017-06-23T20:03:10.522Z,11.88
2017-06-23T20:05:38.469Z,13.35
2017-06-23T20:08:07.046Z,13.25
2017-06-23T20:10:34.940Z,13.00
2017-06-23T20:13:02.780Z,14.13
2017-06-23T20:15:31.389Z,16.55
2017-06-23T20:17:59.236Z,12.07
2017-06-23T20:20:27.816Z,12.37
2017-06-23T20:22:55.805Z,13.62
2017-06-23T20:25:23.633Z,14.32
2017-06-23T20:27:52.257Z,14.68
2017-06-23T20:30:20.110Z,13.68
2017-06-23T20:32:47.951Z,13.62
2017-06-23T20:35:15.841Z,13.40
2017-06-23T20:37:43.999Z,13.90
2017-06-23T20:40:11.842Z,12.68
2017-06-23T20:42:41.061Z,14.30
2017-06-23T20:45:08.875Z,14.02
2017-06-23T20:47:36.728Z,13.10
2017-06-23T20:50:04.676Z,12.25
2017-06-23T20:52:32.511Z,12.93
2017-06-23T20:55:00.656Z,12.60
2017-06-23T20:57:28.475Z,13.45
2017-06-23T20:59:56.358Z,12.90
2017-06-23T21:02:24.208Z,13.32
2017-06-23T21:04:52.021Z,14.20
2017-06-23T21:07:20.694Z,13.23
2017-06-23T21:09:49.306Z,13.07
2017-06-23T21:12:17.200Z,15.65
2017-06-23T21:14:45.035Z,14.27
2017-06-23T21:17:12.844Z,13.55
2017-06-23T21:19:40.688Z,13.18
2017-06-23T21:22:08.524Z,14.80
2017-06-23T21:24:36.367Z,13.95
2017-06-23T21:27:04.428Z,15.48
2017-06-23T21:29:33.304Z,13.23
2017-06-23T21:32:01.161Z,13.02
2017-06-23T21:34:28.973Z,13.95
2017-06-23T21:36:56.814Z,13.23
2017-06-23T21:39:25.387Z,13.00
2017-06-23T21:41:53.358Z,12.50
2017-06-23T21:44:21.378Z,13.77
2017-06-23T21:46:49.175Z,13.70
2017-06-23T21:49:17.927Z,13.65
2017-06-23T21:51:45.705Z,13.82
2017-06-23T21:54:14.258Z,13.45
2017-06-23T21:56:42.076Z,14.23
2017-06-23T21:59:10.625Z,15.32
2017-06-23T22:01:38.444Z,14.98
2017-06-23T22:04:06.222Z,13.23
2017-06-23T22:06:34.000Z,13.10
2017-06-23T22:09:01.984Z,14.23
2017-06-23T22:11:30.613Z,13.02
2017-06-23T22:13:58.424Z,16.10
2017-06-23T22:16:26.188Z,12.80
2017-06-23T22:18:53.996Z,12.32
2017-06-23T22:21:21.799Z,14.95
2017-06-23T22:23:49.568Z,16.08
2017-06-23T22:26:17.388Z,17.15
2017-06-23T22:28:45.156Z,17.52
2017-06-23T22:31:12.945Z,14.52
2017-06-23T22:33:40.756Z,16.80
2017-06-23T22:36:09.291Z,18.08
2017-06-23T22:38:37.100Z,17.48
2017-06-23T22:41:04.877Z,17.98
2017-06-23T22:43:32.648Z,19.12
2017-06-23T22:46:00.456Z,20.27
2017-06-23T22:48:28.232Z,21.05
2017-06-23T22:50:56.811Z,21.25
2017-06-23T22:53:25.352Z,20.85
2017-06-23T22:55:53.120Z,20.50
2017-06-23T22:58:20.924Z,20.20
2017-06-23T23:00:49.460Z,21.80
2017-06-23T23:03:17.268Z,21.27
2017-06-23T23:05:45.809Z,18.20
2017-06-23T23:08:13.580Z,19.90
2017-06-23T23:10:41.384Z,19.35
2017-06-23T23:13:09.149Z,19.67
2017-06-23T23:15:36.967Z,20.90
2017-06-23T23:18:04.751Z,19.48
2017-06-23T23:20:33.305Z,19.77
2017-06-23T23:23:01.109Z,20.70
2017-06-23T23:25:28.894Z,18.37
2017-06-23T23:27:56.712Z,19.60
2017-06-23T23:30:25.252Z,20.27
2017-06-23T23:32:53.025Z,19.37
2017-06-23T23:35:20.863Z,17.40
2017-06-23T23:37:48.625Z,18.25
2017-06-23T23:40:16.435Z,18.33
2017-06-23T23:42:44.206Z,18.17
2017-06-23T23:45:12.745Z,15.43
2017-06-23T23:47:40.550Z,15.32
2017-06-23T23:50:09.081Z,14.95
2017-06-23T23:52:36.888Z,14.95
2017-06-23T23:55:05.425Z,15.15
2017-06-23T23:57:33.514Z,15.43
